createdAt,value
2023-08-08T00:00:21.001Z,3.33
2023-08-08T00:01:52.842Z,3.60
2023-08-08T00:03:24.755Z,3.72
2023-08-08T00:04:56.643Z,3.67
2023-08-08T00:06:29.034Z,3.22
2023-08-08T00:08:00.915Z,4.28
2023-08-08T00:09:32.940Z,4.53
2023-08-08T00:11:04.857Z,5.65
2023-08-08T00:12:36.735Z,5.70
2023-08-08T00:14:08.608Z,4.07
2023-08-08T00:15:40.680Z,6.65
2023-08-08T00:17:12.613Z,4.18
2023-08-08T00:18:44.538Z,5.38
2023-08-08T00:20:16.794Z,5.82
2023-08-08T00:21:48.641Z,3.90
2023-08-08T00:23:20.615Z,3.35
2023-08-08T00:24:52.503Z,3.08
2023-08-08T00:26:24.385Z,4.10
2023-08-08T00:27:56.292Z,4.32
2023-08-08T00:29:28.151Z,3.42
2023-08-08T00:31:00.097Z,2.08
2023-08-08T00:32:32.153Z,4.30
2023-08-08T00:34:04.095Z,2.22
2023-08-08T00:35:35.980Z,2.67
2023-08-08T00:37:08.959Z,2.53
2023-08-08T00:38:41.332Z,2.88
2023-08-08T00:40:13.232Z,2.22
2023-08-08T00:41:45.285Z,3.35
2023-08-08T00:43:17.222Z,3.28
2023-08-08T00:44:50.175Z,1.52
2023-08-08T00:46:23.640Z,2.17
2023-08-08T00:47:55.825Z,2.83
2023-08-08T00:49:27.781Z,3.47
2023-08-08T00:51:00.664Z,2.70
2023-08-08T00:52:32.709Z,2.38
2023-08-08T00:54:05.473Z,1.45
2023-08-08T00:55:37.732Z,2.72
2023-08-08T00:57:09.685Z,1.50
2023-08-08T00:58:42.050Z,1.90
2023-08-08T01:00:14.149Z,2.42
2023-08-08T01:01:46.178Z,2.80
2023-08-08T01:03:18.084Z,2.47
2023-08-08T01:04:50.359Z,3.40
2023-08-08T01:06:39.598Z,4.30
2023-08-08T01:08:17.508Z,2.38
2023-08-08T01:10:09.910Z,1.77
2023-08-08T01:11:42.951Z,3.80
2023-08-08T01:13:23.088Z,2.63
2023-08-08T01:14:55.798Z,5.22
2023-08-08T01:16:28.430Z,3.17
2023-08-08T01:18:07.866Z,2.10
2023-08-08T01:19:40.365Z,1.88
2023-08-08T01:21:12.828Z,2.03
2023-08-08T01:23:11.215Z,1.52
2023-08-08T01:24:45.226Z,2.40
2023-08-08T01:26:17.728Z,2.40
2023-08-08T01:27:49.901Z,1.40
2023-08-08T01:29:21.844Z,2.00
2023-08-08T01:30:55.304Z,2.67
2023-08-08T01:32:27.339Z,2.63
2023-08-08T01:33:59.631Z,1.75
2023-08-08T01:35:35.467Z,1.42
2023-08-08T01:37:22.119Z,1.55
2023-08-08T01:39:01.057Z,1.30
2023-08-08T01:40:33.476Z,2.80
2023-08-08T01:42:07.475Z,3.47
2023-08-08T01:43:40.756Z,1.73
2023-08-08T01:45:13.450Z,3.08
2023-08-08T01:46:45.400Z,2.03
2023-08-08T01:48:19.251Z,2.55
2023-08-08T01:49:51.181Z,2.97
2023-08-08T01:51:23.196Z,2.83
2023-08-08T01:52:55.111Z,5.82
2023-08-08T01:54:27.083Z,7.95
2023-08-08T01:55:58.956Z,9.75
2023-08-08T01:57:30.826Z,16.23
2023-08-08T01:59:04.464Z,9.82
2023-08-08T02:00:37.949Z,11.05
2023-08-08T02:02:10.066Z,9.60
2023-08-08T02:03:42.053Z,8.80
2023-08-08T02:05:14.153Z,8.00
2023-08-08T02:06:46.109Z,7.95
2023-08-08T02:08:19.514Z,7.22
2023-08-08T02:09:52.171Z,6.20
2023-08-08T02:11:24.127Z,7.10
2023-08-08T02:12:55.996Z,4.75
2023-08-08T02:14:28.885Z,3.15
2023-08-08T02:16:01.661Z,3.92
2023-08-08T02:17:33.562Z,3.10
2023-08-08T02:19:05.500Z,5.38
2023-08-08T02:20:37.775Z,3.13
2023-08-08T02:22:10.665Z,3.78
2023-08-08T02:23:42.591Z,2.83
2023-08-08T02:25:14.564Z,2.20
2023-08-08T02:26:46.427Z,2.95
2023-08-08T02:28:19.911Z,1.58
2023-08-08T02:29:51.838Z,3.03
2023-08-08T02:31:23.848Z,3.90
2023-08-08T02:32:56.492Z,1.77
2023-08-08T02:34:28.406Z,5.32
2023-08-08T02:36:02.075Z,4.28
2023-08-08T02:37:33.951Z,4.00
2023-08-08T02:39:05.881Z,2.10
2023-08-08T02:40:37.901Z,2.72
2023-08-08T02:42:09.832Z,2.38
2023-08-08T02:43:41.956Z,2.15
2023-08-08T02:45:13.840Z,3.00
2023-08-08T02:46:45.733Z,3.25
2023-08-08T02:48:18.768Z,3.97
2023-08-08T02:49:50.936Z,2.35
2023-08-08T02:51:23.192Z,3.15
2023-08-08T02:52:55.082Z,2.28
2023-08-08T02:54:30.810Z,2.03
2023-08-08T02:56:02.734Z,1.75
2023-08-08T02:57:38.745Z,2.08
2023-08-08T02:59:10.713Z,1.20
2023-08-08T03:00:42.644Z,2.30
2023-08-08T03:02:18.302Z,2.38
2023-08-08T03:03:51.139Z,3.72
2023-08-08T03:05:25.727Z,2.38
2023-08-08T03:06:57.762Z,4.97
2023-08-08T03:08:29.650Z,4.00
2023-08-08T03:10:03.225Z,1.85
2023-08-08T03:11:38.721Z,1.83
2023-08-08T03:13:12.689Z,2.25
2023-08-08T03:14:45.201Z,1.80
2023-08-08T03:16:17.210Z,3.40
2023-08-08T03:17:49.423Z,2.90
2023-08-08T03:19:21.885Z,1.30
2023-08-08T03:20:54.459Z,3.38
2023-08-08T03:22:27.252Z,2.53
2023-08-08T03:23:59.355Z,1.67
2023-08-08T03:25:31.488Z,2.42
2023-08-08T03:27:03.794Z,2.70
2023-08-08T03:28:35.661Z,1.77
2023-08-08T03:30:08.180Z,2.00
2023-08-08T03:31:45.514Z,1.63
2023-08-08T03:33:17.731Z,2.50
2023-08-08T03:34:49.822Z,4.70
2023-08-08T03:36:21.895Z,2.00
2023-08-08T03:37:53.984Z,2.10
2023-08-08T03:39:25.863Z,1.70
2023-08-08T03:40:57.728Z,1.75
2023-08-08T03:42:29.742Z,2.05
2023-08-08T03:44:04.018Z,2.50
2023-08-08T03:45:36.023Z,1.60
2023-08-08T03:47:18.710Z,2.05
2023-08-08T03:48:54.394Z,2.20
2023-08-08T03:50:26.629Z,2.40
2023-08-08T03:51:58.518Z,2.20
2023-08-08T03:53:30.650Z,1.63
2023-08-08T03:55:03.078Z,1.60
2023-08-08T03:56:35.752Z,1.85
2023-08-08T03:58:07.805Z,1.67
2023-08-08T03:59:40.537Z,2.03
2023-08-08T04:01:13.135Z,1.45
2023-08-08T04:02:45.648Z,2.00
2023-08-08T04:04:17.559Z,2.00
2023-08-08T04:05:49.508Z,2.75
2023-08-08T04:07:21.478Z,1.40
2023-08-08T04:08:54.880Z,2.92
2023-08-08T04:10:26.834Z,1.85
2023-08-08T04:11:59.246Z,1.70
2023-08-08T04:13:31.364Z,1.70
2023-08-08T04:15:03.464Z,2.03
2023-08-08T04:16:36.827Z,1.80
2023-08-08T04:18:08.800Z,1.50
2023-08-08T04:19:40.815Z,2.22
2023-08-08T04:21:12.689Z,1.98
2023-08-08T04:22:45.011Z,1.35
2023-08-08T04:24:17.180Z,2.33
2023-08-08T04:25:49.060Z,2.38
2023-08-08T04:27:20.937Z,2.80
2023-08-08T04:28:53.421Z,1.90
2023-08-08T04:30:25.372Z,1.60
2023-08-08T04:31:57.361Z,2.22
2023-08-08T04:33:29.363Z,1.33
2023-08-08T04:35:01.575Z,2.58
2023-08-08T04:36:33.645Z,2.20
2023-08-08T04:38:05.518Z,2.00
2023-08-08T04:39:37.375Z,2.42
2023-08-08T04:41:09.288Z,2.05
2023-08-08T04:42:41.500Z,2.47
2023-08-08T04:44:13.376Z,1.70
2023-08-08T04:45:45.231Z,1.70
2023-08-08T04:47:17.163Z,3.33
2023-08-08T04:48:49.074Z,2.53
2023-08-08T04:50:21.001Z,1.88
2023-08-08T04:51:52.867Z,2.95
2023-08-08T04:53:24.747Z,2.30
2023-08-08T04:54:56.643Z,2.90
2023-08-08T04:56:30.751Z,2.38
2023-08-08T04:58:02.765Z,2.45
2023-08-08T04:59:34.645Z,3.53
2023-08-08T05:01:06.614Z,1.90
2023-08-08T05:02:40.681Z,4.05
2023-08-08T05:04:12.718Z,4.07
2023-08-08T05:05:46.233Z,4.15
2023-08-08T05:07:18.155Z,2.28
2023-08-08T05:08:52.737Z,2.00
2023-08-08T05:10:25.031Z,3.28
2023-08-08T05:11:56.970Z,2.55
2023-08-08T05:13:28.853Z,2.42
2023-08-08T05:15:00.798Z,3.17
2023-08-08T05:16:32.786Z,2.55
2023-08-08T05:18:05.071Z,1.73
2023-08-08T05:19:37.077Z,2.60
2023-08-08T05:21:09.031Z,1.55
2023-08-08T05:22:41.042Z,1.63
2023-08-08T05:24:13.250Z,1.63
2023-08-08T05:25:46.711Z,2.20
2023-08-08T05:27:18.642Z,1.73
2023-08-08T05:28:50.764Z,1.80
2023-08-08T05:30:23.148Z,1.65
2023-08-08T05:31:55.115Z,2.50
2023-08-08T05:33:27.020Z,1.83
2023-08-08T05:34:59.099Z,2.00
2023-08-08T05:36:31.567Z,1.73
2023-08-08T05:38:03.513Z,1.13
2023-08-08T05:39:35.464Z,1.30
2023-08-08T05:41:07.327Z,1.90
2023-08-08T05:42:40.536Z,2.55
2023-08-08T05:44:12.705Z,2.42
2023-08-08T05:45:45.550Z,1.48
2023-08-08T05:47:17.479Z,2.00
2023-08-08T05:48:49.353Z,3.53
2023-08-08T05:50:21.268Z,0.98
2023-08-08T05:51:53.130Z,1.52
2023-08-08T05:53:25.329Z,2.17
2023-08-08T05:54:57.305Z,2.15
2023-08-08T05:56:36.954Z,2.28
2023-08-08T05:58:09.929Z,1.20
2023-08-08T05:59:42.191Z,1.30
2023-08-08T06:01:14.164Z,1.58
2023-08-08T06:02:46.230Z,2.05
2023-08-08T06:04:18.170Z,1.40
2023-08-08T06:05:50.286Z,1.40
2023-08-08T06:07:22.327Z,1.27
2023-08-08T06:08:54.320Z,2.70
2023-08-08T06:10:26.591Z,2.28
2023-08-08T06:11:59.029Z,1.45
2023-08-08T06:13:31.186Z,1.30
2023-08-08T06:15:05.173Z,1.15
2023-08-08T06:16:37.138Z,1.00
2023-08-08T06:18:09.161Z,1.48
2023-08-08T06:19:41.221Z,3.47
2023-08-08T06:21:13.297Z,1.35
2023-08-08T06:22:45.255Z,1.98
2023-08-08T06:24:17.230Z,1.85
2023-08-08T06:25:49.103Z,1.88
2023-08-08T06:27:20.998Z,0.93
2023-08-08T06:28:52.925Z,1.58
2023-08-08T06:30:24.809Z,1.65
2023-08-08T06:31:56.837Z,1.20
2023-08-08T06:33:29.554Z,1.42
2023-08-08T06:35:01.738Z,1.50
2023-08-08T06:36:33.866Z,1.90
2023-08-08T06:38:06.418Z,2.10
2023-08-08T06:39:39.967Z,1.58
2023-08-08T06:41:30.471Z,1.67
2023-08-08T06:43:20.920Z,1.80
2023-08-08T06:45:11.666Z,1.30
2023-08-08T06:46:43.719Z,1.30
2023-08-08T06:48:15.791Z,2.55
2023-08-08T06:49:47.705Z,2.65
2023-08-08T06:51:19.847Z,1.65
2023-08-08T06:52:52.125Z,1.73
2023-08-08T06:54:24.061Z,1.15
2023-08-08T06:55:55.961Z,1.77
2023-08-08T06:57:27.903Z,1.17
2023-08-08T06:58:59.765Z,1.48
2023-08-08T07:00:31.800Z,1.48
2023-08-08T07:02:04.166Z,1.95
2023-08-08T07:03:37.113Z,2.53
2023-08-08T07:05:11.238Z,3.80
2023-08-08T07:06:44.719Z,1.40
2023-08-08T07:08:16.757Z,1.80
2023-08-08T07:09:50.227Z,1.60
2023-08-08T07:11:23.336Z,1.35
2023-08-08T07:12:55.320Z,1.23
2023-08-08T07:14:27.333Z,3.05
2023-08-08T07:15:59.549Z,2.05
2023-08-08T07:17:31.641Z,1.00
2023-08-08T07:19:03.778Z,1.25
2023-08-08T07:20:35.733Z,1.45
2023-08-08T07:22:09.690Z,1.60
2023-08-08T07:23:41.717Z,0.80
2023-08-08T07:25:13.652Z,1.40
2023-08-08T07:26:45.655Z,1.77
2023-08-08T07:28:17.559Z,1.88
2023-08-08T07:29:49.419Z,1.95
2023-08-08T07:31:21.495Z,2.17
2023-08-08T07:32:53.493Z,1.05
2023-08-08T07:34:26.213Z,1.25
2023-08-08T07:35:58.115Z,0.98
2023-08-08T07:37:30.004Z,1.15
2023-08-08T07:39:01.970Z,1.63
2023-08-08T07:40:34.379Z,2.15
2023-08-08T07:42:06.416Z,1.38
2023-08-08T07:43:38.329Z,0.98
2023-08-08T07:45:10.698Z,1.58
2023-08-08T07:46:42.680Z,1.58
2023-08-08T07:48:14.645Z,1.25
2023-08-08T07:49:46.507Z,1.20
2023-08-08T07:51:18.635Z,1.33
2023-08-08T07:52:50.556Z,2.13
2023-08-08T07:54:22.462Z,2.60
2023-08-08T07:55:54.353Z,1.42
2023-08-08T07:57:28.070Z,1.17
2023-08-08T07:59:00.716Z,1.25
2023-08-08T08:00:32.676Z,1.52
2023-08-08T08:02:05.124Z,1.60
2023-08-08T08:03:37.325Z,1.42
2023-08-08T08:05:09.790Z,1.27
2023-08-08T08:06:42.892Z,1.20
2023-08-08T08:08:16.223Z,1.20
2023-08-08T08:09:48.160Z,0.85
2023-08-08T08:11:20.860Z,1.00
2023-08-08T08:12:59.127Z,1.05
2023-08-08T08:14:31.066Z,1.05
2023-08-08T08:16:03.105Z,1.73
2023-08-08T08:17:35.116Z,1.30
2023-08-08T08:19:07.049Z,0.90
2023-08-08T08:20:39.199Z,1.25
2023-08-08T08:22:11.107Z,1.58
2023-08-08T08:23:43.013Z,1.45
2023-08-08T08:25:16.060Z,0.90
2023-08-08T08:26:47.960Z,1.60
2023-08-08T08:28:19.933Z,1.23
2023-08-08T08:29:51.791Z,1.58
2023-08-08T08:31:23.805Z,1.25
2023-08-08T08:32:56.598Z,0.73
2023-08-08T08:34:28.562Z,2.70
2023-08-08T08:36:00.474Z,0.90
2023-08-08T08:37:32.410Z,1.15
2023-08-08T08:39:04.880Z,1.30
2023-08-08T08:40:39.190Z,1.10
2023-08-08T08:42:16.500Z,1.23
2023-08-08T08:43:49.976Z,1.00
2023-08-08T08:45:22.914Z,2.05
2023-08-08T08:46:56.977Z,1.30
2023-08-08T08:48:29.494Z,0.80
2023-08-08T08:50:03.289Z,0.80
2023-08-08T08:51:40.016Z,2.13
2023-08-08T08:53:14.135Z,1.35
2023-08-08T08:54:46.416Z,1.33
2023-08-08T08:56:19.257Z,1.45
2023-08-08T08:57:52.119Z,1.10
2023-08-08T08:59:24.049Z,1.20
2023-08-08T09:00:58.257Z,0.80
2023-08-08T09:02:30.384Z,0.75
2023-08-08T09:04:04.463Z,1.20
2023-08-08T09:05:36.874Z,1.23
2023-08-08T09:07:10.537Z,1.20
2023-08-08T09:08:42.490Z,1.10
2023-08-08T09:10:17.396Z,1.23
2023-08-08T09:11:50.773Z,1.00
2023-08-08T09:13:24.180Z,1.50
2023-08-08T09:15:00.052Z,1.20
2023-08-08T09:16:32.410Z,1.85
2023-08-08T09:18:04.582Z,1.20
2023-08-08T09:19:36.567Z,1.20
2023-08-08T09:21:08.450Z,1.40
2023-08-08T09:22:40.475Z,0.70
2023-08-08T09:24:12.935Z,1.33
2023-08-08T09:25:45.145Z,0.95
2023-08-08T09:27:17.477Z,1.77
2023-08-08T09:28:49.415Z,1.75
2023-08-08T09:30:22.028Z,1.08
2023-08-08T09:31:54.000Z,1.52
2023-08-08T09:33:30.142Z,1.15
2023-08-08T09:35:02.031Z,1.25
2023-08-08T09:36:36.304Z,1.48
2023-08-08T09:38:08.783Z,0.85
2023-08-08T09:39:40.724Z,1.23
2023-08-08T09:41:13.220Z,2.70
2023-08-08T09:42:45.326Z,2.97
2023-08-08T09:44:17.326Z,6.68
2023-08-08T09:45:49.515Z,6.95
2023-08-08T09:47:23.577Z,6.93
2023-08-08T09:48:56.357Z,5.32
2023-08-08T09:50:29.979Z,5.57
2023-08-08T09:52:04.002Z,5.40
2023-08-08T09:53:36.517Z,4.35
2023-08-08T09:55:09.036Z,4.47
2023-08-08T09:56:41.697Z,5.35
2023-08-08T09:58:15.176Z,3.70
2023-08-08T09:59:48.447Z,4.15
2023-08-08T10:01:22.029Z,2.08
2023-08-08T10:02:54.190Z,1.70
2023-08-08T10:04:26.818Z,1.45
2023-08-08T10:05:58.765Z,0.88
2023-08-08T10:07:31.606Z,1.25
2023-08-08T10:09:04.739Z,1.52
2023-08-08T10:10:38.346Z,2.05
2023-08-08T10:12:12.578Z,1.00
2023-08-08T10:13:51.871Z,2.00
2023-08-08T10:15:28.540Z,3.05
2023-08-08T10:17:03.591Z,1.77
2023-08-08T10:18:36.111Z,2.78
2023-08-08T10:20:13.067Z,2.13
2023-08-08T10:21:46.580Z,1.05
2023-08-08T10:23:19.820Z,0.90
2023-08-08T10:24:55.760Z,1.08
2023-08-08T10:26:29.495Z,1.30
2023-08-08T10:28:26.358Z,0.98
2023-08-08T10:30:05.322Z,1.15
2023-08-08T10:31:37.788Z,1.20
2023-08-08T10:33:17.269Z,1.25
2023-08-08T10:34:49.416Z,1.27
2023-08-08T10:36:22.300Z,1.40
2023-08-08T10:37:58.936Z,1.00
2023-08-08T10:39:32.098Z,1.88
2023-08-08T10:41:04.368Z,2.90
2023-08-08T10:42:44.584Z,1.90
2023-08-08T10:44:26.368Z,1.52
2023-08-08T10:46:13.024Z,1.65
2023-08-08T10:47:48.828Z,2.85
2023-08-08T10:49:20.971Z,1.17
2023-08-08T10:50:57.277Z,1.67
2023-08-08T10:52:30.168Z,1.40
2023-08-08T10:54:07.910Z,1.35
2023-08-08T10:55:39.990Z,1.33
2023-08-08T10:57:17.593Z,1.00
2023-08-08T10:58:50.516Z,2.80
2023-08-08T11:00:25.961Z,0.88
2023-08-08T11:01:58.495Z,1.60
2023-08-08T11:03:31.447Z,1.50
2023-08-08T11:05:04.888Z,1.52
2023-08-08T11:06:36.879Z,2.20
2023-08-08T11:08:09.120Z,1.00
2023-08-08T11:09:41.034Z,1.45
2023-08-08T11:11:13.739Z,1.52
2023-08-08T11:13:01.900Z,1.75
2023-08-08T11:14:33.997Z,1.25
2023-08-08T11:16:06.168Z,2.75
2023-08-08T11:17:38.207Z,1.08
2023-08-08T11:19:11.076Z,1.25
2023-08-08T11:20:43.805Z,2.50
2023-08-08T11:22:15.699Z,0.70
2023-08-08T11:23:48.988Z,0.93
2023-08-08T11:25:22.181Z,1.30
2023-08-08T11:27:00.109Z,1.75
2023-08-08T11:28:32.061Z,1.15
2023-08-08T11:30:05.711Z,0.88
2023-08-08T11:31:39.166Z,2.17
2023-08-08T11:33:15.892Z,1.38
2023-08-08T11:34:49.035Z,1.02
2023-08-08T11:36:21.997Z,1.50
2023-08-08T11:37:57.008Z,1.33
2023-08-08T11:39:30.503Z,1.10
2023-08-08T11:41:02.577Z,0.98
2023-08-08T11:42:34.613Z,1.25
2023-08-08T11:44:10.011Z,0.95
2023-08-08T11:45:44.208Z,1.20
2023-08-08T11:47:16.090Z,1.08
2023-08-08T11:48:48.122Z,1.00
2023-08-08T11:50:21.779Z,0.80
2023-08-08T11:51:57.026Z,1.13
2023-08-08T11:53:29.134Z,1.35
2023-08-08T11:55:04.154Z,1.20
2023-08-08T11:56:37.684Z,1.17
2023-08-08T11:58:15.715Z,0.70
2023-08-08T11:59:50.802Z,1.20
2023-08-08T12:01:24.533Z,1.17
2023-08-08T12:02:57.153Z,1.50
2023-08-08T12:04:29.288Z,3.42
2023-08-08T12:06:01.172Z,1.90
2023-08-08T12:07:35.615Z,1.77
2023-08-08T12:09:07.902Z,1.42
2023-08-08T12:10:39.922Z,1.15
2023-08-08T12:12:11.838Z,1.45
2023-08-08T12:13:45.343Z,0.85
2023-08-08T12:15:17.390Z,0.88
2023-08-08T12:16:49.443Z,0.70
2023-08-08T12:18:21.963Z,1.98
2023-08-08T12:19:53.895Z,1.63
2023-08-08T12:21:25.952Z,0.82
2023-08-08T12:22:58.743Z,0.95
2023-08-08T12:24:30.744Z,1.10
2023-08-08T12:26:08.726Z,0.90
2023-08-08T12:27:40.642Z,1.17
2023-08-08T12:29:13.398Z,1.48
2023-08-08T12:30:45.354Z,1.67
2023-08-08T12:32:17.290Z,1.25
2023-08-08T12:33:50.224Z,0.70
2023-08-08T12:35:22.317Z,1.23
2023-08-08T12:36:54.191Z,1.08
2023-08-08T12:38:26.047Z,1.00
2023-08-08T12:39:58.299Z,0.93
2023-08-08T12:41:31.007Z,0.80
2023-08-08T12:43:02.936Z,1.27
2023-08-08T12:44:34.886Z,1.40
2023-08-08T12:46:06.880Z,2.05
2023-08-08T12:47:39.065Z,1.40
2023-08-08T12:49:11.297Z,1.30
2023-08-08T12:50:43.716Z,1.13
2023-08-08T12:52:15.638Z,1.15
2023-08-08T12:53:47.577Z,1.65
2023-08-08T12:55:19.873Z,0.93
2023-08-08T12:56:51.749Z,2.08
2023-08-08T12:58:24.388Z,1.15
2023-08-08T12:59:56.392Z,2.03
2023-08-08T13:01:28.557Z,1.13
2023-08-08T13:03:02.338Z,1.20
2023-08-08T13:04:35.143Z,1.50
2023-08-08T13:06:07.101Z,1.05
2023-08-08T13:07:38.985Z,1.10
2023-08-08T13:09:11.823Z,0.90
2023-08-08T13:10:43.796Z,1.10
2023-08-08T13:12:15.832Z,0.88
2023-08-08T13:13:47.690Z,1.20
2023-08-08T13:15:19.663Z,1.00
2023-08-08T13:16:52.597Z,2.13
2023-08-08T13:18:24.470Z,3.15
2023-08-08T13:19:56.344Z,0.98
2023-08-08T13:21:28.461Z,1.02
2023-08-08T13:23:00.380Z,1.80
2023-08-08T13:24:32.703Z,1.00
2023-08-08T13:26:04.951Z,0.85
2023-08-08T13:27:37.480Z,0.77
2023-08-08T13:29:10.053Z,1.58
2023-08-08T13:30:44.273Z,1.13
2023-08-08T13:32:16.412Z,1.10
2023-08-08T13:33:48.305Z,1.05
2023-08-08T13:35:20.298Z,0.82
2023-08-08T13:36:52.188Z,1.60
2023-08-08T13:38:25.099Z,1.45
2023-08-08T13:39:57.103Z,0.88
2023-08-08T13:41:29.022Z,0.98
2023-08-08T13:43:00.882Z,1.00
2023-08-08T13:44:32.800Z,1.75
2023-08-08T13:46:09.067Z,1.42
2023-08-08T13:47:41.222Z,0.93
2023-08-08T13:49:13.341Z,0.70
2023-08-08T13:50:45.494Z,1.95
2023-08-08T13:52:17.410Z,1.10
2023-08-08T13:53:50.412Z,1.23
2023-08-08T13:55:22.406Z,2.95
2023-08-08T13:56:54.319Z,1.02
2023-08-08T13:58:26.364Z,0.93
2023-08-08T13:59:58.616Z,2.13
2023-08-08T14:01:30.528Z,1.13
2023-08-08T14:03:03.587Z,0.98
2023-08-08T14:04:35.585Z,2.35
2023-08-08T14:06:07.540Z,0.90
2023-08-08T14:07:39.484Z,1.63
2023-08-08T14:09:12.061Z,0.80
2023-08-08T14:10:44.789Z,0.82
2023-08-08T14:12:16.872Z,1.63
2023-08-08T14:13:49.073Z,1.52
2023-08-08T14:15:20.981Z,0.80
2023-08-08T14:16:53.840Z,1.45
2023-08-08T14:18:26.412Z,2.50
2023-08-08T14:19:58.278Z,1.00
2023-08-08T14:21:30.202Z,1.80
2023-08-08T14:23:02.147Z,2.03
2023-08-08T14:24:34.096Z,1.25
2023-08-08T14:26:06.229Z,1.00
2023-08-08T14:27:38.409Z,1.30
2023-08-08T14:29:10.273Z,1.13
2023-08-08T14:30:42.190Z,0.80
2023-08-08T14:32:14.114Z,0.80
2023-08-08T14:33:46.022Z,0.98
2023-08-08T14:35:17.889Z,1.08
2023-08-08T14:36:50.064Z,1.15
2023-08-08T14:38:25.061Z,0.77
2023-08-08T14:39:56.926Z,1.25
2023-08-08T14:41:29.339Z,0.90
2023-08-08T14:43:01.617Z,0.82
2023-08-08T14:44:33.503Z,0.75
2023-08-08T14:46:05.470Z,1.08
2023-08-08T14:47:37.416Z,0.80
2023-08-08T14:49:10.186Z,0.95
2023-08-08T14:50:42.167Z,1.27
2023-08-08T14:52:14.558Z,1.20
2023-08-08T14:53:46.464Z,0.85
2023-08-08T14:55:18.365Z,1.13
2023-08-08T14:56:50.377Z,1.52
2023-08-08T14:58:23.173Z,1.63
2023-08-08T14:59:59.506Z,0.80
2023-08-08T15:01:31.489Z,1.17
2023-08-08T15:03:03.574Z,0.82
2023-08-08T15:04:36.013Z,0.68
2023-08-08T15:06:08.084Z,1.77
2023-08-08T15:07:40.106Z,1.58
2023-08-08T15:09:12.451Z,1.05
2023-08-08T15:10:44.303Z,0.80
2023-08-08T15:12:17.731Z,1.48
2023-08-08T15:13:49.753Z,1.85
2023-08-08T15:15:24.329Z,1.20
2023-08-08T15:16:58.091Z,1.65
2023-08-08T15:18:30.410Z,1.17
2023-08-08T15:20:02.647Z,0.60
2023-08-08T15:21:34.878Z,0.88
2023-08-08T15:23:06.839Z,1.10
2023-08-08T15:24:38.723Z,0.95
2023-08-08T15:26:10.587Z,1.85
2023-08-08T15:27:42.640Z,1.70
2023-08-08T15:29:14.516Z,1.00
2023-08-08T15:30:46.482Z,1.40
2023-08-08T15:32:18.462Z,0.77
2023-08-08T15:33:50.340Z,0.75
2023-08-08T15:35:22.218Z,1.42
2023-08-08T15:36:54.178Z,0.95
2023-08-08T15:38:26.076Z,1.38
2023-08-08T15:40:00.211Z,0.75
2023-08-08T15:41:32.180Z,1.13
2023-08-08T15:43:04.107Z,0.70
2023-08-08T15:44:36.143Z,1.95
2023-08-08T15:46:08.915Z,0.73
2023-08-08T15:47:40.828Z,1.25
2023-08-08T15:49:13.784Z,0.85
2023-08-08T15:50:46.043Z,0.98
2023-08-08T15:52:18.417Z,1.20
2023-08-08T15:53:50.254Z,1.13
2023-08-08T15:55:22.772Z,2.10
2023-08-08T15:56:54.741Z,1.25
2023-08-08T15:58:27.496Z,1.73
2023-08-08T15:59:59.680Z,1.63
2023-08-08T16:01:31.596Z,3.17
2023-08-08T16:03:03.898Z,2.30
2023-08-08T16:04:35.934Z,3.05
2023-08-08T16:06:07.876Z,4.18
2023-08-08T16:07:39.723Z,2.70
2023-08-08T16:09:11.741Z,3.63
2023-08-08T16:10:43.611Z,2.20
2023-08-08T16:12:15.792Z,2.97
2023-08-08T16:13:47.945Z,2.40
2023-08-08T16:15:20.024Z,2.10
2023-08-08T16:16:52.266Z,1.27
2023-08-08T16:18:24.203Z,1.25
2023-08-08T16:19:56.043Z,1.30
2023-08-08T16:21:27.973Z,2.33
2023-08-08T16:22:59.888Z,1.10
2023-08-08T16:24:31.789Z,1.00
2023-08-08T16:26:03.771Z,1.30
2023-08-08T16:27:36.610Z,1.02
2023-08-08T16:29:08.631Z,1.10
2023-08-08T16:30:40.572Z,1.35
2023-08-08T16:32:12.460Z,2.20
2023-08-08T16:33:44.425Z,0.98
2023-08-08T16:35:16.340Z,1.58
2023-08-08T16:36:49.218Z,1.00
2023-08-08T16:38:21.127Z,1.35
2023-08-08T16:39:53.077Z,1.55
2023-08-08T16:41:24.938Z,0.82
2023-08-08T16:42:57.118Z,1.67
2023-08-08T16:44:29.030Z,1.65
2023-08-08T16:46:00.896Z,0.90
2023-08-08T16:47:32.813Z,0.85
2023-08-08T16:49:04.761Z,0.90
2023-08-08T16:50:36.660Z,0.95
2023-08-08T16:52:08.595Z,0.80
2023-08-08T16:53:40.466Z,1.27
2023-08-08T16:55:12.471Z,0.75
2023-08-08T16:56:44.390Z,0.80
2023-08-08T16:58:16.341Z,1.20
2023-08-08T16:59:48.248Z,1.48
2023-08-08T17:01:20.506Z,1.15
2023-08-08T17:02:52.496Z,1.98
2023-08-08T17:04:24.493Z,1.55
2023-08-08T17:05:56.385Z,0.95
2023-08-08T17:07:30.397Z,0.70
2023-08-08T17:09:02.306Z,1.88
2023-08-08T17:10:34.233Z,1.13
2023-08-08T17:12:06.724Z,0.90
2023-08-08T17:13:39.091Z,0.93
2023-08-08T17:15:11.146Z,2.05
2023-08-08T17:16:43.165Z,1.13
2023-08-08T17:18:15.066Z,0.88
2023-08-08T17:19:47.061Z,1.00
2023-08-08T17:21:19.113Z,0.77
2023-08-08T17:22:51.047Z,1.10
2023-08-08T17:24:28.160Z,1.20
2023-08-08T17:26:04.304Z,0.80
2023-08-08T17:27:36.901Z,1.30
2023-08-08T17:29:08.831Z,1.58
2023-08-08T17:30:40.798Z,2.20
2023-08-08T17:32:12.750Z,0.93
2023-08-08T17:33:44.766Z,0.80
2023-08-08T17:35:17.429Z,1.38
2023-08-08T17:36:50.355Z,1.92
2023-08-08T17:38:22.281Z,1.15
2023-08-08T17:39:54.176Z,1.23
2023-08-08T17:41:26.129Z,1.00
2023-08-08T17:42:58.072Z,1.83
2023-08-08T17:44:29.952Z,1.55
2023-08-08T17:46:01.920Z,1.65
2023-08-08T17:47:34.507Z,1.50
2023-08-08T17:49:06.489Z,0.80
2023-08-08T17:50:38.403Z,1.80
2023-08-08T17:52:13.145Z,2.22
2023-08-08T17:53:45.035Z,1.40
2023-08-08T17:55:17.028Z,2.05
2023-08-08T17:56:49.078Z,2.22
2023-08-08T17:58:20.999Z,1.10
2023-08-08T17:59:52.926Z,1.52
2023-08-08T18:01:25.419Z,1.23
2023-08-08T18:02:59.074Z,1.38
2023-08-08T18:04:32.396Z,1.73
2023-08-08T18:06:04.421Z,1.00
2023-08-08T18:07:36.349Z,1.40
2023-08-08T18:09:08.335Z,0.98
2023-08-08T18:10:43.618Z,1.13
2023-08-08T18:12:15.554Z,1.40
2023-08-08T18:13:49.125Z,1.20
2023-08-08T18:15:21.308Z,0.90
2023-08-08T18:16:53.272Z,2.05
2023-08-08T18:18:27.307Z,0.98
2023-08-08T18:19:59.229Z,1.27
2023-08-08T18:21:32.715Z,1.00
2023-08-08T18:23:05.360Z,1.38
2023-08-08T18:24:37.337Z,1.33
2023-08-08T18:26:09.617Z,1.90
2023-08-08T18:27:41.520Z,2.13
2023-08-08T18:29:13.390Z,1.13
2023-08-08T18:30:45.674Z,1.30
2023-08-08T18:32:17.541Z,1.85
2023-08-08T18:33:49.468Z,1.98
2023-08-08T18:35:21.409Z,1.30
2023-08-08T18:36:53.290Z,0.95
2023-08-08T18:38:25.413Z,1.40
2023-08-08T18:39:57.427Z,1.65
2023-08-08T18:41:29.864Z,2.20
2023-08-08T18:43:01.795Z,1.35
2023-08-08T18:44:33.849Z,2.03
2023-08-08T18:46:06.828Z,2.45
2023-08-08T18:47:38.881Z,1.33
2023-08-08T18:49:10.848Z,1.52
2023-08-08T18:50:42.870Z,0.98
2023-08-08T18:52:14.754Z,1.42
2023-08-08T18:53:46.828Z,2.33
2023-08-08T18:55:18.717Z,1.23
2023-08-08T18:56:51.286Z,1.52
2023-08-08T18:58:23.342Z,0.90
2023-08-08T18:59:55.237Z,1.30
2023-08-08T19:01:27.535Z,2.10
2023-08-08T19:02:59.838Z,1.40
2023-08-08T19:04:31.794Z,1.20
2023-08-08T19:06:04.584Z,2.28
2023-08-08T19:07:36.531Z,1.23
2023-08-08T19:09:11.358Z,1.00
2023-08-08T19:10:43.203Z,1.77
2023-08-08T19:12:15.071Z,1.98
2023-08-08T19:13:47.055Z,1.10
2023-08-08T19:15:19.004Z,1.67
2023-08-08T19:16:50.912Z,1.00
2023-08-08T19:18:23.773Z,1.92
2023-08-08T19:19:55.682Z,2.22
2023-08-08T19:21:27.740Z,3.92
2023-08-08T19:22:59.619Z,4.07
2023-08-08T19:24:32.093Z,4.20
2023-08-08T19:26:04.270Z,5.93
2023-08-08T19:27:36.146Z,6.20
2023-08-08T19:29:08.554Z,4.43
2023-08-08T19:30:40.782Z,4.50
2023-08-08T19:32:12.785Z,7.65
2023-08-08T19:34:00.081Z,3.65
2023-08-08T19:35:36.857Z,3.08
2023-08-08T19:37:08.748Z,3.70
2023-08-08T19:38:40.650Z,2.17
2023-08-08T19:40:12.553Z,1.98
2023-08-08T19:41:44.586Z,1.95
2023-08-08T19:43:16.560Z,1.70
2023-08-08T19:44:48.568Z,1.65
2023-08-08T19:46:20.543Z,1.08
2023-08-08T19:47:52.784Z,1.30
2023-08-08T19:49:24.951Z,2.00
2023-08-08T19:50:57.010Z,1.05
2023-08-08T19:52:28.945Z,1.85
2023-08-08T19:54:00.958Z,1.73
2023-08-08T19:55:33.879Z,1.88
2023-08-08T19:57:05.824Z,1.60
2023-08-08T19:58:37.878Z,1.67
2023-08-08T20:00:10.239Z,1.00
2023-08-08T20:01:45.196Z,1.92
2023-08-08T20:03:17.451Z,0.90
2023-08-08T20:04:49.424Z,2.10
2023-08-08T20:06:22.009Z,2.30
2023-08-08T20:07:56.276Z,1.70
2023-08-08T20:09:28.444Z,1.30
2023-08-08T20:11:01.026Z,1.05
2023-08-08T20:12:33.131Z,1.73
2023-08-08T20:14:06.018Z,1.63
2023-08-08T20:15:38.279Z,0.82
2023-08-08T20:17:10.288Z,0.95
2023-08-08T20:18:42.226Z,1.42
2023-08-08T20:20:14.158Z,1.70
2023-08-08T20:21:46.079Z,0.90
2023-08-08T20:23:18.080Z,1.02
2023-08-08T20:24:50.659Z,2.03
2023-08-08T20:26:23.968Z,3.33
2023-08-08T20:27:56.218Z,1.50
2023-08-08T20:29:28.808Z,1.30
2023-08-08T20:31:01.157Z,1.60
2023-08-08T20:32:33.358Z,1.42
2023-08-08T20:34:05.197Z,1.73
2023-08-08T20:35:37.994Z,1.15